sensor_id;sensor_type;location;lat;lon;timestamp;temperature;humidity
53776;DHT22;44276;49.534;6.378;2023-04-01T00:01:16;9.50;99.90
53776;DHT22;44276;49.534;6.378;2023-04-01T00:03:45;9.40;99.90
53776;DHT22;44276;49.534;6.378;2023-04-01T00:06:17;9.30;99.90
53776;DHT22;44276;49.534;6.378;2023-04-01T00:08:46;9.30;99.90
53776;DHT22;44276;49.534;6.378;2023-04-01T00:11:17;9.20;99.90
53776;DHT22;44276;49.534;6.378;2023-04-01T00:13:49;9.30;99.90
53776;DHT22;44276;49.534;6.378;2023-04-01T00:16:18;9.40;99.90
53776;DHT22;44276;49.534;6.378;2023-04-01T00:18:49;9.40;99.90
53776;DHT22;44276;49.534;6.378;2023-04-01T00:21:20;9.40;99.90
53776;DHT22;44276;49.534;6.378;2023-04-01T00:23:49;9.30;99.90
53776;DHT22;44276;49.534;6.378;2023-04-01T00:26:20;9.40;99.90
53776;DHT22;44276;49.534;6.378;2023-04-01T00:28:49;9.40;99.90
53776;DHT22;44276;49.534;6.378;2023-04-01T00:31:19;9.50;99.90
53776;DHT22;44276;49.534;6.378;2023-04-01T00:33:48;9.40;99.90
53776;DHT22;44276;49.534;6.378;2023-04-01T00:36:19;9.40;99.90
53776;DHT22;44276;49.534;6.378;2023-04-01T00:38:50;9.40;99.90
53776;DHT22;44276;49.534;6.378;2023-04-01T00:41:21;9.40;99.90
53776;DHT22;44276;49.534;6.378;2023-04-01T00:43:50;9.40;99.90
53776;DHT22;44276;49.534;6.378;2023-04-01T00:46:20;9.40;99.90
53776;DHT22;44276;49.534;6.378;2023-04-01T00:48:52;9.40;99.90
53776;DHT22;44276;49.534;6.378;2023-04-01T00:51:25;9.30;99.90
53776;DHT22;44276;49.534;6.378;2023-04-01T00:53:58;9.40;99.90
53776;DHT22;44276;49.534;6.378;2023-04-01T00:56:33;9.50;99.90
53776;DHT22;44276;49.534;6.378;2023-04-01T00:59:08;9.60;99.90
53776;DHT22;44276;49.534;6.378;2023-04-01T01:01:40;9.70;99.90
53776;DHT22;44276;49.534;6.378;2023-04-01T01:04:22;9.80;99.90
53776;DHT22;44276;49.534;6.378;2023-04-01T01:06:57;9.70;99.90
53776;DHT22;44276;49.534;6.378;2023-04-01T01:09:39;9.80;99.90
53776;DHT22;44276;49.534;6.378;2023-04-01T01:12:18;9.70;99.90
53776;DHT22;44276;49.534;6.378;2023-04-01T01:14:56;9.80;99.90
53776;DHT22;44276;49.534;6.378;2023-04-01T01:17:42;9.80;99.90
53776;DHT22;44276;49.534;6.378;2023-04-01T01:20:42;9.80;99.90
53776;DHT22;44276;49.534;6.378;2023-04-01T01:23:47;9.80;99.90
53776;DHT22;44276;49.534;6.378;2023-04-01T01:26:52;9.90;99.90
53776;DHT22;44276;49.534;6.378;2023-04-01T01:30:04;9.90;99.90
53776;DHT22;44276;49.534;6.378;2023-04-01T01:33:04;9.90;99.90
53776;DHT22;44276;49.534;6.378;2023-04-01T01:35:44;10.00;99.90
53776;DHT22;44276;49.534;6.378;2023-04-01T01:38:18;9.90;99.90
53776;DHT22;44276;49.534;6.378;2023-04-01T01:40:50;10.00;99.90
53776;DHT22;44276;49.534;6.378;2023-04-01T01:43:23;10.00;99.90
53776;DHT22;44276;49.534;6.378;2023-04-01T01:45:56;10.10;99.90
53776;DHT22;44276;49.534;6.378;2023-04-01T01:48:28;10.10;99.90
53776;DHT22;44276;49.534;6.378;2023-04-01T01:50:59;10.00;99.90
53776;DHT22;44276;49.534;6.378;2023-04-01T01:53:28;10.10;99.90
53776;DHT22;44276;49.534;6.378;2023-04-01T01:55:56;10.00;99.90
53776;DHT22;44276;49.534;6.378;2023-04-01T01:58:27;10.00;99.90
53776;DHT22;44276;49.534;6.378;2023-04-01T02:01:00;10.00;99.90
53776;DHT22;44276;49.534;6.378;2023-04-01T02:03:32;10.00;99.90
53776;DHT22;44276;49.534;6.378;2023-04-01T02:06:06;10.10;99.90
53776;DHT22;44276;49.534;6.378;2023-04-01T02:08:40;10.00;99.90
53776;DHT22;44276;49.534;6.378;2023-04-01T02:11:13;10.00;99.90
53776;DHT22;44276;49.534;6.378;2023-04-01T02:13:49;10.00;99.90
53776;DHT22;44276;49.534;6.378;2023-04-01T02:16:23;10.00;99.90
53776;DHT22;44276;49.534;6.378;2023-04-01T02:18:57;9.90;99.90
53776;DHT22;44276;49.534;6.378;2023-04-01T02:21:31;9.70;99.90
53776;DHT22;44276;49.534;6.378;2023-04-01T02:24:01;9.60;99.90
53776;DHT22;44276;49.534;6.378;2023-04-01T02:26:34;9.50;99.90
53776;DHT22;44276;49.534;6.378;2023-04-01T02:29:03;9.40;99.90
53776;DHT22;44276;49.534;6.378;2023-04-01T02:31:37;9.30;99.90
53776;DHT22;44276;49.534;6.378;2023-04-01T02:34:23;9.20;99.90
53776;DHT22;44276;49.534;6.378;2023-04-01T02:36:58;9.20;99.90
53776;DHT22;44276;49.534;6.378;2023-04-01T02:39:30;9.10;99.90
53776;DHT22;44276;49.534;6.378;2023-04-01T02:42:00;9.10;99.90
53776;DHT22;44276;49.534;6.378;2023-04-01T02:44:30;9.10;99.90
53776;DHT22;44276;49.534;6.378;2023-04-01T02:46:58;9.00;99.90
53776;DHT22;44276;49.534;6.378;2023-04-01T02:49:26;9.00;99.90
53776;DHT22;44276;49.534;6.378;2023-04-01T02:51:55;9.00;99.90
53776;DHT22;44276;49.534;6.378;2023-04-01T02:54:24;8.90;99.90
53776;DHT22;44276;49.534;6.378;2023-04-01T02:56:52;9.00;99.90
53776;DHT22;44276;49.534;6.378;2023-04-01T02:59:20;8.90;99.90
53776;DHT22;44276;49.534;6.378;2023-04-01T03:01:48;8.90;99.90
53776;DHT22;44276;49.534;6.378;2023-04-01T03:04:16;8.90;99.90
53776;DHT22;44276;49.534;6.378;2023-04-01T03:06:45;8.80;99.90
53776;DHT22;44276;49.534;6.378;2023-04-01T03:09:13;8.80;99.90
53776;DHT22;44276;49.534;6.378;2023-04-01T03:11:42;8.80;99.90
53776;DHT22;44276;49.534;6.378;2023-04-01T03:14:10;8.90;99.90
53776;DHT22;44276;49.534;6.378;2023-04-01T03:16:38;8.90;99.90
53776;DHT22;44276;49.534;6.378;2023-04-01T03:19:06;8.90;99.90
53776;DHT22;44276;49.534;6.378;2023-04-01T03:21:35;8.90;99.90
53776;DHT22;44276;49.534;6.378;2023-04-01T03:24:03;8.90;99.90
53776;DHT22;44276;49.534;6.378;2023-04-01T03:26:32;8.90;99.90
53776;DHT22;44276;49.534;6.378;2023-04-01T03:29:01;8.90;99.90
53776;DHT22;44276;49.534;6.378;2023-04-01T03:31:29;8.80;99.90
53776;DHT22;44276;49.534;6.378;2023-04-01T03:33:58;8.80;99.90
53776;DHT22;44276;49.534;6.378;2023-04-01T03:36:26;8.80;99.90
53776;DHT22;44276;49.534;6.378;2023-04-01T03:38:54;8.70;99.90
53776;DHT22;44276;49.534;6.378;2023-04-01T03:41:22;8.70;99.90
53776;DHT22;44276;49.534;6.378;2023-04-01T03:43:50;8.70;99.90
53776;DHT22;44276;49.534;6.378;2023-04-01T03:46:20;8.70;99.90
53776;DHT22;44276;49.534;6.378;2023-04-01T03:48:48;8.70;99.90
53776;DHT22;44276;49.534;6.378;2023-04-01T03:51:16;8.60;99.90
53776;DHT22;44276;49.534;6.378;2023-04-01T03:53:44;8.60;99.90
53776;DHT22;44276;49.534;6.378;2023-04-01T03:56:12;8.50;99.90
53776;DHT22;44276;49.534;6.378;2023-04-01T03:58:40;8.50;99.90
53776;DHT22;44276;49.534;6.378;2023-04-01T04:01:17;8.60;99.90
53776;DHT22;44276;49.534;6.378;2023-04-01T04:03:49;8.60;99.90
53776;DHT22;44276;49.534;6.378;2023-04-01T04:06:18;8.60;99.90
53776;DHT22;44276;49.534;6.378;2023-04-01T04:08:47;8.70;99.90
53776;DHT22;44276;49.534;6.378;2023-04-01T04:11:15;8.70;99.90
53776;DHT22;44276;49.534;6.378;2023-04-01T04:13:44;8.80;99.90
53776;DHT22;44276;49.534;6.378;2023-04-01T04:16:12;8.80;99.90
53776;DHT22;44276;49.534;6.378;2023-04-01T04:18:40;8.80;99.90
53776;DHT22;44276;49.534;6.378;2023-04-01T04:21:13;8.80;99.90
53776;DHT22;44276;49.534;6.378;2023-04-01T04:23:42;8.80;99.90
53776;DHT22;44276;49.534;6.378;2023-04-01T04:26:13;8.80;99.90
53776;DHT22;44276;49.534;6.378;2023-04-01T04:28:42;8.80;99.90
53776;DHT22;44276;49.534;6.378;2023-04-01T04:31:11;8.70;99.90
53776;DHT22;44276;49.534;6.378;2023-04-01T04:33:39;8.70;99.90
53776;DHT22;44276;49.534;6.378;2023-04-01T04:36:07;8.70;99.90
53776;DHT22;44276;49.534;6.378;2023-04-01T04:38:37;8.70;99.90
53776;DHT22;44276;49.534;6.378;2023-04-01T04:41:08;8.70;99.90
53776;DHT22;44276;49.534;6.378;2023-04-01T04:43:39;8.70;99.90
53776;DHT22;44276;49.534;6.378;2023-04-01T04:46:10;8.70;99.90
53776;DHT22;44276;49.534;6.378;2023-04-01T04:48:38;8.70;99.90
53776;DHT22;44276;49.534;6.378;2023-04-01T04:51:07;8.70;99.90
53776;DHT22;44276;49.534;6.378;2023-04-01T04:53:36;8.60;99.90
53776;DHT22;44276;49.534;6.378;2023-04-01T04:56:05;8.70;99.90
53776;DHT22;44276;49.534;6.378;2023-04-01T04:58:34;8.70;99.90
53776;DHT22;44276;49.534;6.378;2023-04-01T05:01:06;8.70;99.90
53776;DHT22;44276;49.534;6.378;2023-04-01T05:03:36;8.60;99.90
53776;DHT22;44276;49.534;6.378;2023-04-01T05:06:06;8.60;99.90
53776;DHT22;44276;49.534;6.378;2023-04-01T05:08:37;8.60;99.90
53776;DHT22;44276;49.534;6.378;2023-04-01T05:11:07;8.60;99.90
53776;DHT22;44276;49.534;6.378;2023-04-01T05:13:39;8.70;99.90
53776;DHT22;44276;49.534;6.378;2023-04-01T05:16:08;8.70;99.90
53776;DHT22;44276;49.534;6.378;2023-04-01T05:18:36;8.70;99.90
53776;DHT22;44276;49.534;6.378;2023-04-01T05:21:07;8.70;99.90
53776;DHT22;44276;49.534;6.378;2023-04-01T05:23:38;8.70;99.90
53776;DHT22;44276;49.534;6.378;2023-04-01T05:26:09;8.70;99.90
53776;DHT22;44276;49.534;6.378;2023-04-01T05:28:40;8.70;99.90
53776;DHT22;44276;49.534;6.378;2023-04-01T05:31:08;8.70;99.90
53776;DHT22;44276;49.534;6.378;2023-04-01T05:33:37;8.80;99.90
53776;DHT22;44276;49.534;6.378;2023-04-01T05:36:06;8.80;99.90
53776;DHT22;44276;49.534;6.378;2023-04-01T05:38:37;8.80;99.90
53776;DHT22;44276;49.534;6.378;2023-04-01T05:41:06;8.80;99.90
53776;DHT22;44276;49.534;6.378;2023-04-01T05:43:36;8.90;99.90
53776;DHT22;44276;49.534;6.378;2023-04-01T05:46:04;8.90;99.90
53776;DHT22;44276;49.534;6.378;2023-04-01T05:48:33;9.00;99.90
53776;DHT22;44276;49.534;6.378;2023-04-01T05:51:02;8.90;99.90
53776;DHT22;44276;49.534;6.378;2023-04-01T05:53:31;9.00;99.90
53776;DHT22;44276;49.534;6.378;2023-04-01T05:56:03;9.00;99.90
53776;DHT22;44276;49.534;6.378;2023-04-01T05:58:32;9.00;99.90
53776;DHT22;44276;49.534;6.378;2023-04-01T06:01:01;9.00;99.90
53776;DHT22;44276;49.534;6.378;2023-04-01T06:03:39;9.00;99.90
53776;DHT22;44276;49.534;6.378;2023-04-01T06:06:13;9.10;99.90
53776;DHT22;44276;49.534;6.378;2023-04-01T06:08:43;9.00;99.90
53776;DHT22;44276;49.534;6.378;2023-04-01T06:11:25;9.00;99.90
53776;DHT22;44276;49.534;6.378;2023-04-01T06:14:15;9.00;99.90
53776;DHT22;44276;49.534;6.378;2023-04-01T06:17:06;9.00;99.90
53776;DHT22;44276;49.534;6.378;2023-04-01T06:19:51;9.00;99.90
53776;DHT22;44276;49.534;6.378;2023-04-01T06:22:40;9.00;99.90
53776;DHT22;44276;49.534;6.378;2023-04-01T06:28:52;9.10;99.90
53776;DHT22;44276;49.534;6.378;2023-04-01T06:32:00;9.10;99.90
53776;DHT22;44276;49.534;6.378;2023-04-01T06:34:56;9.10;99.90
53776;DHT22;44276;49.534;6.378;2023-04-01T06:37:52;9.10;99.90
53776;DHT22;44276;49.534;6.378;2023-04-01T06:40:45;9.20;99.90
53776;DHT22;44276;49.534;6.378;2023-04-01T06:43:43;9.20;99.90
53776;DHT22;44276;49.534;6.378;2023-04-01T06:46:31;9.30;99.90
53776;DHT22;44276;49.534;6.378;2023-04-01T06:49:29;9.30;99.90
53776;DHT22;44276;49.534;6.378;2023-04-01T06:52:16;9.30;99.90
53776;DHT22;44276;49.534;6.378;2023-04-01T06:54:55;9.40;99.90
53776;DHT22;44276;49.534;6.378;2023-04-01T06:57:32;9.50;99.90
53776;DHT22;44276;49.534;6.378;2023-04-01T07:02:47;9.60;99.90
53776;DHT22;44276;49.534;6.378;2023-04-01T07:05:20;9.70;99.90
53776;DHT22;44276;49.534;6.378;2023-04-01T07:07:53;9.70;99.90
53776;DHT22;44276;49.534;6.378;2023-04-01T07:10:34;9.70;99.90
53776;DHT22;44276;49.534;6.378;2023-04-01T07:13:11;9.70;99.90
53776;DHT22;44276;49.534;6.378;2023-04-01T07:15:48;9.60;99.90
53776;DHT22;44276;49.534;6.378;2023-04-01T07:18:32;9.70;99.90
53776;DHT22;44276;49.534;6.378;2023-04-01T07:21:12;9.70;99.90
53776;DHT22;44276;49.534;6.378;2023-04-01T07:23:50;9.70;99.90
53776;DHT22;44276;49.534;6.378;2023-04-01T07:26:23;9.70;99.90
53776;DHT22;44276;49.534;6.378;2023-04-01T07:28:53;9.80;99.90
53776;DHT22;44276;49.534;6.378;2023-04-01T07:31:43;9.90;99.90
53776;DHT22;44276;49.534;6.378;2023-04-01T07:34:25;9.90;99.90
53776;DHT22;44276;49.534;6.378;2023-04-01T07:37:02;10.10;99.90
53776;DHT22;44276;49.534;6.378;2023-04-01T07:39:40;10.20;99.90
53776;DHT22;44276;49.534;6.378;2023-04-01T07:42:22;10.30;99.90
53776;DHT22;44276;49.534;6.378;2023-04-01T07:45:07;10.30;99.90
53776;DHT22;44276;49.534;6.378;2023-04-01T07:47:53;10.40;99.90
53776;DHT22;44276;49.534;6.378;2023-04-01T07:50:38;10.50;99.90
53776;DHT22;44276;49.534;6.378;2023-04-01T07:53:22;10.60;99.90
53776;DHT22;44276;49.534;6.378;2023-04-01T07:56:05;10.70;99.90
53776;DHT22;44276;49.534;6.378;2023-04-01T07:58:48;10.80;99.90
53776;DHT22;44276;49.534;6.378;2023-04-01T08:01:27;10.80;99.90
53776;DHT22;44276;49.534;6.378;2023-04-01T08:04:19;10.80;99.90
53776;DHT22;44276;49.534;6.378;2023-04-01T08:07:05;10.90;99.90
53776;DHT22;44276;49.534;6.378;2023-04-01T08:09:43;11.10;99.90
53776;DHT22;44276;49.534;6.378;2023-04-01T08:12:28;11.10;99.90
53776;DHT22;44276;49.534;6.378;2023-04-01T08:15:11;11.00;99.90
53776;DHT22;44276;49.534;6.378;2023-04-01T08:17:58;10.90;99.90
53776;DHT22;44276;49.534;6.378;2023-04-01T08:20:37;10.70;99.90
53776;DHT22;44276;49.534;6.378;2023-04-01T08:23:14;10.60;99.90
53776;DHT22;44276;49.534;6.378;2023-04-01T08:25:51;10.50;99.90
53776;DHT22;44276;49.534;6.378;2023-04-01T08:28:27;10.60;99.90
53776;DHT22;44276;49.534;6.378;2023-04-01T08:31:04;10.60;99.90
53776;DHT22;44276;49.534;6.378;2023-04-01T08:33:36;10.60;99.90
53776;DHT22;44276;49.534;6.378;2023-04-01T08:36:10;10.70;99.90
53776;DHT22;44276;49.534;6.378;2023-04-01T08:38:46;10.80;99.90
53776;DHT22;44276;49.534;6.378;2023-04-01T08:42:05;10.90;99.90
53776;DHT22;44276;49.534;6.378;2023-04-01T08:45:10;11.00;99.90
53776;DHT22;44276;49.534;6.378;2023-04-01T08:48:01;11.10;99.90
53776;DHT22;44276;49.534;6.378;2023-04-01T08:50:56;11.10;99.90
53776;DHT22;44276;49.534;6.378;2023-04-01T08:56:56;11.10;99.90
53776;DHT22;44276;49.534;6.378;2023-04-01T08:59:44;11.20;99.90
53776;DHT22;44276;49.534;6.378;2023-04-01T09:05:41;11.30;99.90
53776;DHT22;44276;49.534;6.378;2023-04-01T09:08:45;11.50;99.90
53776;DHT22;44276;49.534;6.378;2023-04-01T09:11:38;11.60;99.90
53776;DHT22;44276;49.534;6.378;2023-04-01T09:14:42;11.70;99.90
53776;DHT22;44276;49.534;6.378;2023-04-01T09:17:39;11.90;99.90
53776;DHT22;44276;49.534;6.378;2023-04-01T09:20:44;11.90;99.90
53776;DHT22;44276;49.534;6.378;2023-04-01T09:23:33;12.10;99.90
53776;DHT22;44276;49.534;6.378;2023-04-01T09:26:34;12.30;99.90
53776;DHT22;44276;49.534;6.378;2023-04-01T09:29:23;12.30;99.90
53776;DHT22;44276;49.534;6.378;2023-04-01T09:32:18;12.30;99.90
53776;DHT22;44276;49.534;6.378;2023-04-01T09:35:10;12.40;99.90
53776;DHT22;44276;49.534;6.378;2023-04-01T09:37:54;12.30;99.90
53776;DHT22;44276;49.534;6.378;2023-04-01T09:40:42;12.30;99.90
53776;DHT22;44276;49.534;6.378;2023-04-01T09:43:24;12.30;99.90
53776;DHT22;44276;49.534;6.378;2023-04-01T09:49:14;12.10;99.90
53776;DHT22;44276;49.534;6.378;2023-04-01T09:52:07;12.00;99.90
53776;DHT22;44276;49.534;6.378;2023-04-01T09:54:59;11.90;99.90
53776;DHT22;44276;49.534;6.378;2023-04-01T09:57:51;11.90;99.90
53776;DHT22;44276;49.534;6.378;2023-04-01T10:00:53;12.00;99.90
53776;DHT22;44276;49.534;6.378;2023-04-01T10:10:34;11.90;99.90
53776;DHT22;44276;49.534;6.378;2023-04-01T10:20:17;12.20;99.90
53776;DHT22;44276;49.534;6.378;2023-04-01T10:23:21;12.30;99.90
53776;DHT22;44276;49.534;6.378;2023-04-01T10:26:40;12.30;99.90
53776;DHT22;44276;49.534;6.378;2023-04-01T10:33:20;12.60;99.90
53776;DHT22;44276;49.534;6.378;2023-04-01T10:36:27;12.70;99.90
53776;DHT22;44276;49.534;6.378;2023-04-01T10:39:48;12.80;99.90
53776;DHT22;44276;49.534;6.378;2023-04-01T10:43:19;12.80;99.90
53776;DHT22;44276;49.534;6.378;2023-04-01T10:56:39;12.40;99.90
53776;DHT22;44276;49.534;6.378;2023-04-01T10:59:36;12.40;99.90
53776;DHT22;44276;49.534;6.378;2023-04-01T11:05:58;12.50;99.90
53776;DHT22;44276;49.534;6.378;2023-04-01T11:09:36;12.40;99.90
53776;DHT22;44276;49.534;6.378;2023-04-01T11:12:47;12.60;99.90
53776;DHT22;44276;49.534;6.378;2023-04-01T11:15:49;12.60;99.90
53776;DHT22;44276;49.534;6.378;2023-04-01T11:19:02;12.70;99.90
53776;DHT22;44276;49.534;6.378;2023-04-01T11:22:40;12.90;99.90
53776;DHT22;44276;49.534;6.378;2023-04-01T11:25:29;13.00;99.90
53776;DHT22;44276;49.534;6.378;2023-04-01T11:31:47;12.90;99.00
53776;DHT22;44276;49.534;6.378;2023-04-01T11:34:37;12.70;99.60
53776;DHT22;44276;49.534;6.378;2023-04-01T11:37:29;12.90;97.30
53776;DHT22;44276;49.534;6.378;2023-04-01T11:40:19;12.80;93.80
53776;DHT22;44276;49.534;6.378;2023-04-01T11:42:58;12.70;99.90
53776;DHT22;44276;49.534;6.378;2023-04-01T11:45:46;12.70;99.90
53776;DHT22;44276;49.534;6.378;2023-04-01T11:48:41;12.80;93.10
53776;DHT22;44276;49.534;6.378;2023-04-01T11:51:34;12.70;90.90
53776;DHT22;44276;49.534;6.378;2023-04-01T11:54:28;12.80;92.20
53776;DHT22;44276;49.534;6.378;2023-04-01T11:57:33;12.70;96.40
53776;DHT22;44276;49.534;6.378;2023-04-01T12:07:10;12.20;99.90
53776;DHT22;44276;49.534;6.378;2023-04-01T12:09:52;12.30;99.90
53776;DHT22;44276;49.534;6.378;2023-04-01T12:12:38;12.50;99.90
53776;DHT22;44276;49.534;6.378;2023-04-01T12:15:34;12.80;99.90
53776;DHT22;44276;49.534;6.378;2023-04-01T12:18:17;12.90;99.90
53776;DHT22;44276;49.534;6.378;2023-04-01T12:20:57;13.10;99.90
53776;DHT22;44276;49.534;6.378;2023-04-01T12:26:47;13.10;99.90
53776;DHT22;44276;49.534;6.378;2023-04-01T12:29:50;13.30;99.90
53776;DHT22;44276;49.534;6.378;2023-04-01T12:32:40;13.40;98.90
53776;DHT22;44276;49.534;6.378;2023-04-01T12:35:23;13.10;99.90
53776;DHT22;44276;49.534;6.378;2023-04-01T12:38:01;12.70;99.90
53776;DHT22;44276;49.534;6.378;2023-04-01T12:40:50;12.40;99.90
53776;DHT22;44276;49.534;6.378;2023-04-01T12:43:54;12.20;99.90
53776;DHT22;44276;49.534;6.378;2023-04-01T12:47:00;11.70;99.90
53776;DHT22;44276;49.534;6.378;2023-04-01T12:50:15;11.70;99.90
53776;DHT22;44276;49.534;6.378;2023-04-01T12:53:01;11.90;99.90
53776;DHT22;44276;49.534;6.378;2023-04-01T12:55:56;12.30;99.90
53776;DHT22;44276;49.534;6.378;2023-04-01T12:58:55;12.20;99.90
53776;DHT22;44276;49.534;6.378;2023-04-01T13:02:01;11.60;99.90
53776;DHT22;44276;49.534;6.378;2023-04-01T13:05:09;11.20;99.90
53776;DHT22;44276;49.534;6.378;2023-04-01T13:08:01;10.90;99.90
53776;DHT22;44276;49.534;6.378;2023-04-01T13:10:53;10.70;99.90
53776;DHT22;44276;49.534;6.378;2023-04-01T13:14:00;10.70;99.90
53776;DHT22;44276;49.534;6.378;2023-04-01T13:17:01;10.90;99.90
53776;DHT22;44276;49.534;6.378;2023-04-01T13:19:44;11.10;99.90
53776;DHT22;44276;49.534;6.378;2023-04-01T13:22:49;11.10;99.90
53776;DHT22;44276;49.534;6.378;2023-04-01T13:25:28;11.00;99.90
53776;DHT22;44276;49.534;6.378;2023-04-01T13:28:11;10.80;99.90
53776;DHT22;44276;49.534;6.378;2023-04-01T13:30:51;10.70;99.90
53776;DHT22;44276;49.534;6.378;2023-04-01T13:33:36;10.70;99.90
53776;DHT22;44276;49.534;6.378;2023-04-01T13:36:22;10.80;99.90
53776;DHT22;44276;49.534;6.378;2023-04-01T13:39:10;10.90;99.90
53776;DHT22;44276;49.534;6.378;2023-04-01T13:42:02;11.00;99.90
53776;DHT22;44276;49.534;6.378;2023-04-01T13:44:45;11.20;99.90
53776;DHT22;44276;49.534;6.378;2023-04-01T13:50:34;12.20;99.90
53776;DHT22;44276;49.534;6.378;2023-04-01T13:57:06;12.40;99.90
53776;DHT22;44276;49.534;6.378;2023-04-01T14:00:03;12.30;99.90
53776;DHT22;44276;49.534;6.378;2023-04-01T14:03:03;12.30;99.90
53776;DHT22;44276;49.534;6.378;2023-04-01T14:05:52;12.20;99.90
53776;DHT22;44276;49.534;6.378;2023-04-01T14:08:40;12.10;99.90
53776;DHT22;44276;49.534;6.378;2023-04-01T14:11:24;12.10;99.90
53776;DHT22;44276;49.534;6.378;2023-04-01T14:14:06;12.20;95.00
53776;DHT22;44276;49.534;6.378;2023-04-01T14:23:25;11.50;99.90
53776;DHT22;44276;49.534;6.378;2023-04-01T14:26:35;11.20;99.90
53776;DHT22;44276;49.534;6.378;2023-04-01T14:29:29;11.00;99.90
53776;DHT22;44276;49.534;6.378;2023-04-01T14:32:12;11.10;99.90
53776;DHT22;44276;49.534;6.378;2023-04-01T14:34:59;11.10;99.90
53776;DHT22;44276;49.534;6.378;2023-04-01T14:37:58;11.20;99.90
53776;DHT22;44276;49.534;6.378;2023-04-01T14:41:02;11.00;99.90
53776;DHT22;44276;49.534;6.378;2023-04-01T14:43:53;10.80;99.90
53776;DHT22;44276;49.534;6.378;2023-04-01T14:47:04;11.00;99.90
53776;DHT22;44276;49.534;6.378;2023-04-01T14:49:46;11.20;99.90
53776;DHT22;44276;49.534;6.378;2023-04-01T14:52:22;11.40;99.90
53776;DHT22;44276;49.534;6.378;2023-04-01T14:54:57;11.40;99.90
53776;DHT22;44276;49.534;6.378;2023-04-01T14:57:28;11.40;99.90
53776;DHT22;44276;49.534;6.378;2023-04-01T15:00:01;11.50;99.90
53776;DHT22;44276;49.534;6.378;2023-04-01T15:02:52;11.50;99.90
53776;DHT22;44276;49.534;6.378;2023-04-01T15:05:38;11.70;99.90
53776;DHT22;44276;49.534;6.378;2023-04-01T15:08:18;11.90;99.90
53776;DHT22;44276;49.534;6.378;2023-04-01T15:14:04;11.60;99.90
53776;DHT22;44276;49.534;6.378;2023-04-01T15:17:05;11.50;99.90
53776;DHT22;44276;49.534;6.378;2023-04-01T15:20:00;11.40;99.90
53776;DHT22;44276;49.534;6.378;2023-04-01T15:23:08;11.30;99.90
53776;DHT22;44276;49.534;6.378;2023-04-01T15:25:54;11.60;99.90
53776;DHT22;44276;49.534;6.378;2023-04-01T15:28:53;11.90;97.70
53776;DHT22;44276;49.534;6.378;2023-04-01T15:31:38;12.00;89.10
53776;DHT22;44276;49.534;6.378;2023-04-01T15:34:24;12.20;77.80
53776;DHT22;44276;49.534;6.378;2023-04-01T15:37:04;12.30;77.20
53776;DHT22;44276;49.534;6.378;2023-04-01T15:39:51;12.20;77.90
53776;DHT22;44276;49.534;6.378;2023-04-01T15:42:47;12.00;82.30
53776;DHT22;44276;49.534;6.378;2023-04-01T15:45:29;11.80;86.40
53776;DHT22;44276;49.534;6.378;2023-04-01T15:48:11;11.80;90.80
53776;DHT22;44276;49.534;6.378;2023-04-01T15:51:02;11.70;93.40
53776;DHT22;44276;49.534;6.378;2023-04-01T15:54:06;11.70;97.00
53776;DHT22;44276;49.534;6.378;2023-04-01T15:57:05;11.60;95.20
53776;DHT22;44276;49.534;6.378;2023-04-01T16:03:13;11.50;99.90
53776;DHT22;44276;49.534;6.378;2023-04-01T16:05:56;11.40;99.90
53776;DHT22;44276;49.534;6.378;2023-04-01T16:08:57;11.30;99.90
53776;DHT22;44276;49.534;6.378;2023-04-01T16:11:50;11.20;99.90
53776;DHT22;44276;49.534;6.378;2023-04-01T16:14:31;11.20;99.90
53776;DHT22;44276;49.534;6.378;2023-04-01T16:17:25;11.10;99.90
53776;DHT22;44276;49.534;6.378;2023-04-01T16:20:19;11.20;99.90
53776;DHT22;44276;49.534;6.378;2023-04-01T16:22:54;11.20;99.90
53776;DHT22;44276;49.534;6.378;2023-04-01T16:25:33;11.20;99.90
53776;DHT22;44276;49.534;6.378;2023-04-01T16:28:19;11.10;99.90
53776;DHT22;44276;49.534;6.378;2023-04-01T16:30:57;11.10;99.90
53776;DHT22;44276;49.534;6.378;2023-04-01T16:33:38;11.10;99.90
53776;DHT22;44276;49.534;6.378;2023-04-01T16:36:24;11.10;99.90
53776;DHT22;44276;49.534;6.378;2023-04-01T16:39:15;11.00;99.90
53776;DHT22;44276;49.534;6.378;2023-04-01T16:42:13;11.00;99.90
53776;DHT22;44276;49.534;6.378;2023-04-01T16:44:54;11.00;99.90
53776;DHT22;44276;49.534;6.378;2023-04-01T16:47:30;11.00;99.90
53776;DHT22;44276;49.534;6.378;2023-04-01T16:50:07;11.00;99.90
53776;DHT22;44276;49.534;6.378;2023-04-01T16:52:57;10.90;99.90
53776;DHT22;44276;49.534;6.378;2023-04-01T16:55:41;10.90;99.90
53776;DHT22;44276;49.534;6.378;2023-04-01T16:58:19;10.90;99.90
53776;DHT22;44276;49.534;6.378;2023-04-01T17:00:55;10.90;99.90
53776;DHT22;44276;49.534;6.378;2023-04-01T17:03:35;10.90;99.90
53776;DHT22;44276;49.534;6.378;2023-04-01T17:06:19;10.80;99.90
53776;DHT22;44276;49.534;6.378;2023-04-01T17:09:20;10.80;99.90
53776;DHT22;44276;49.534;6.378;2023-04-01T17:12:05;10.70;99.90
53776;DHT22;44276;49.534;6.378;2023-04-01T17:14:46;10.60;99.90
53776;DHT22;44276;49.534;6.378;2023-04-01T17:17:31;10.60;99.90
53776;DHT22;44276;49.534;6.378;2023-04-01T17:20:26;10.50;99.90
53776;DHT22;44276;49.534;6.378;2023-04-01T17:23:12;10.50;99.90
53776;DHT22;44276;49.534;6.378;2023-04-01T17:26:03;10.50;99.90
53776;DHT22;44276;49.534;6.378;2023-04-01T17:28:46;10.50;99.90
53776;DHT22;44276;49.534;6.378;2023-04-01T17:31:37;10.50;99.90
53776;DHT22;44276;49.534;6.378;2023-04-01T17:34:26;10.40;99.90
53776;DHT22;44276;49.534;6.378;2023-04-01T17:37:15;10.50;99.90
53776;DHT22;44276;49.534;6.378;2023-04-01T17:40:16;10.50;99.90
53776;DHT22;44276;49.534;6.378;2023-04-01T17:43:05;10.50;99.90
53776;DHT22;44276;49.534;6.378;2023-04-01T17:45:45;10.50;99.90
53776;DHT22;44276;49.534;6.378;2023-04-01T17:48:27;10.40;99.90
53776;DHT22;44276;49.534;6.378;2023-04-01T17:51:19;10.40;99.90
53776;DHT22;44276;49.534;6.378;2023-04-01T17:54:03;10.30;99.90
53776;DHT22;44276;49.534;6.378;2023-04-01T17:56:47;10.30;99.90
53776;DHT22;44276;49.534;6.378;2023-04-01T17:59:36;10.30;99.90
53776;DHT22;44276;49.534;6.378;2023-04-01T18:02:20;10.20;99.90
53776;DHT22;44276;49.534;6.378;2023-04-01T18:05:21;10.10;99.90
53776;DHT22;44276;49.534;6.378;2023-04-01T18:11:08;10.00;99.90
53776;DHT22;44276;49.534;6.378;2023-04-01T18:14:13;10.10;99.90
53776;DHT22;44276;49.534;6.378;2023-04-01T18:17:18;10.10;99.90
53776;DHT22;44276;49.534;6.378;2023-04-01T18:20:06;10.10;99.90
53776;DHT22;44276;49.534;6.378;2023-04-01T18:22:46;10.10;99.90
53776;DHT22;44276;49.534;6.378;2023-04-01T18:25:25;10.10;99.90
53776;DHT22;44276;49.534;6.378;2023-04-01T18:28:14;10.10;99.90
53776;DHT22;44276;49.534;6.378;2023-04-01T18:30:54;10.10;99.90
53776;DHT22;44276;49.534;6.378;2023-04-01T18:33:31;10.10;99.90
53776;DHT22;44276;49.534;6.378;2023-04-01T18:36:15;10.00;99.90
53776;DHT22;44276;49.534;6.378;2023-04-01T18:38:52;10.00;99.90